Time;durP1;ratioP1;P1;durP2;ratioP2;P2;SDS_P1;SDS_P2;PMS_P1;PMS_P2;Temp;Humidity;BMP_temperature;BMP_pressure;BME280_temperature;BME280_humidity;BME280_pressure;Samples;Min_cycle;Max_cycle;Signal;HPM_P1;HPM_P2
2022/05/21 00:01:43;;;;;;;3.70;1.70;;;;;;;30.43;33.30;97067.41;5065131;28;20028;-36
2022/05/21 00:04:08;;;;;;;7.40;1.80;;;;;;;30.42;34.04;97065.69;5067323;28;20079;-31
2022/05/21 00:06:33;;;;;;;4.53;1.92;;;;;;;30.42;33.60;97068.31;5064306;28;20025;-32
2022/05/21 00:08:59;;;;;;;3.53;1.80;;;;;;;30.40;33.68;97071.06;5059139;28;20479;-29
2022/05/21 00:11:24;;;;;;;4.32;1.60;;;;;;;30.40;33.64;97064.94;5063841;28;20021;-32
2022/05/21 00:13:50;;;;;;;4.03;1.60;;;;;;;30.39;33.61;97069.38;5061753;28;20488;-32
2022/05/21 00:16:16;;;;;;;4.50;1.90;;;;;;;30.38;33.72;97070.34;5064409;28;20020;-36
2022/05/21 00:18:41;;;;;;;3.45;1.67;;;;;;;30.37;33.52;97068.66;5059699;28;20055;-33
2022/05/21 00:21:07;;;;;;;3.05;1.90;;;;;;;30.35;33.04;97065.25;5055648;28;20028;-32
2022/05/21 00:23:33;;;;;;;6.28;1.50;;;;;;;30.34;33.16;97068.84;5060436;28;20024;-33
2022/05/21 00:26:06;;;;;;;3.92;1.63;;;;;;;30.31;33.14;97079.63;5045218;28;20059;-35
2022/05/21 00:28:32;;;;;;;4.68;1.88;;;;;;;30.30;33.21;97072.66;5064174;28;20113;-29
2022/05/21 00:30:58;;;;;;;2.53;1.58;;;;;;;30.27;32.94;97078.13;5064372;28;20086;-31
2022/05/21 00:33:24;;;;;;;3.63;1.50;;;;;;;30.24;32.64;97074.75;5069545;28;20032;-31
2022/05/21 00:35:49;;;;;;;4.32;1.50;;;;;;;30.22;32.54;97071.38;5062169;28;20028;-31
2022/05/21 00:38:15;;;;;;;3.75;1.40;;;;;;;30.20;32.69;97072.41;5058600;28;20032;-32
2022/05/21 00:40:40;;;;;;;4.20;1.63;;;;;;;30.17;32.04;97070.81;5065884;28;20052;-33
2022/05/21 00:43:06;;;;;;;4.65;1.60;;;;;;;30.14;32.31;97070.19;5068016;28;20429;-31
2022/05/21 00:45:31;;;;;;;3.08;1.40;;;;;;;30.10;32.41;97073.00;5069655;28;20024;-31
2022/05/21 00:47:57;;;;;;;3.63;1.50;;;;;;;30.08;31.96;97080.19;5068441;28;20081;-32
2022/05/21 00:50:24;;;;;;;3.67;1.10;;;;;;;30.05;31.86;97074.28;5065377;28;20625;-31
2022/05/21 00:52:50;;;;;;;4.90;1.38;;;;;;;30.02;31.60;97079.75;5068077;28;20050;-31
2022/05/21 00:55:22;;;;;;;5.88;1.23;;;;;;;29.99;31.56;97075.53;5069699;28;20024;-30
2022/05/21 00:57:49;;;;;;;6.63;1.60;;;;;;;29.98;31.95;97085.25;5064277;28;20024;-31
2022/05/21 01:00:19;;;;;;;2.53;1.10;;;;;;;29.96;31.64;97081.88;5064410;28;21417;-32
2022/05/21 01:02:48;;;;;;;3.35;1.40;;;;;;;29.95;31.51;97074.88;5061766;28;20025;-28
2022/05/21 01:05:15;;;;;;;3.05;1.48;;;;;;;29.94;31.54;97083.75;5042006;28;20039;-29
2022/05/21 01:07:41;;;;;;;4.75;1.08;;;;;;;29.93;31.47;97075.91;5060453;28;20130;-32
2022/05/21 01:10:08;;;;;;;2.03;1.33;;;;;;;29.91;31.30;97083.97;5063132;28;20047;-30
2022/05/21 01:12:36;;;;;;;3.80;1.15;;;;;;;29.91;31.63;97086.63;5060497;28;20031;-29
2022/05/21 01:15:05;;;;;;;2.92;1.15;;;;;;;29.91;31.39;97085.75;5061768;28;20098;-33
2022/05/21 01:17:31;;;;;;;2.83;1.38;;;;;;;29.91;31.55;97083.13;5058333;28;20056;-29
2022/05/21 01:20:02;;;;;;;3.53;1.60;;;;;;;29.88;31.11;97086.81;5045638;28;20066;-33
2022/05/21 01:22:28;;;;;;;1.87;1.10;;;;;;;29.86;30.96;97086.03;5063877;28;20432;-31
2022/05/21 01:24:54;;;;;;;1.27;1.00;;;;;;;29.85;30.82;97090.50;5060376;28;20843;-36
2022/05/21 01:27:19;;;;;;;2.05;1.13;;;;;;;29.86;31.17;97086.03;5064179;28;20082;-30
2022/05/21 01:29:44;;;;;;;1.85;1.10;;;;;;;29.85;30.76;97097.56;5065481;28;20086;-31
2022/05/21 01:32:15;;;;;;;3.80;0.98;;;;;;;29.83;30.88;97091.53;5066171;28;20032;-31
2022/05/21 01:34:40;;;;;;;3.28;1.17;;;;;;;29.83;30.76;97099.47;5064500;28;20043;-29
2022/05/21 01:37:06;;;;;;;1.35;0.90;;;;;;;29.81;30.67;97098.72;5059437;28;20028;-30
2022/05/21 01:39:31;;;;;;;2.22;0.90;;;;;;;29.79;30.47;97105.91;5070108;28;20555;-33
2022/05/21 01:41:56;;;;;;;3.67;0.95;;;;;;;29.78;30.23;97109.50;5062256;28;20032;-32
2022/05/21 01:44:40;;;;;;;0.95;0.80;;;;;;;29.77;30.32;97119.19;5062379;28;20024;-32
2022/05/21 01:47:10;;;;;;;1.02;0.70;;;;;;;29.75;30.14;97125.53;5065476;28;20569;-31
2022/05/21 01:49:35;;;;;;;2.10;1.00;;;;;;;29.73;29.97;97129.13;5060062;28;20024;-34
2022/05/21 01:52:02;;;;;;;2.20;1.05;;;;;;;29.72;30.43;97137.97;5066717;28;20440;-32
2022/05/21 01:54:27;;;;;;;1.80;0.90;;;;;;;29.71;30.51;97141.56;5064166;28;20361;-33
2022/05/21 01:56:53;;;;;;;1.50;0.90;;;;;;;29.71;30.50;97146.03;5064237;28;20741;-30
2022/05/21 01:59:18;;;;;;;2.90;1.10;;;;;;;29.70;30.38;97144.31;5062012;28;20499;-29
2022/05/21 02:01:44;;;;;;;1.58;0.80;;;;;;;29.68;30.22;97152.31;5062346;28;20031;-30
2022/05/21 02:04:09;;;;;;;2.38;1.02;;;;;;;29.67;30.23;97161.19;5063220;28;20036;-30
2022/05/21 02:06:34;;;;;;;2.95;1.30;;;;;;;29.67;30.34;97155.91;5059834;28;20490;-28
2022/05/21 02:09:00;;;;;;;2.17;1.08;;;;;;;29.67;30.24;97161.19;5059615;28;20393;-29
2022/05/21 02:11:25;;;;;;;1.52;0.85;;;;;;;29.65;30.30;97157.81;5060251;28;20012;-31
2022/05/21 02:13:51;;;;;;;1.73;1.15;;;;;;;29.65;30.35;97163.09;5061690;28;20054;-28
2022/05/21 02:16:16;;;;;;;2.25;1.02;;;;;;;29.67;30.22;97166.47;5061208;28;20032;-32
2022/05/21 02:18:41;;;;;;;0.82;0.80;;;;;;;29.67;30.32;97166.47;5060400;28;20466;-32
2022/05/21 02:21:07;;;;;;;1.27;0.82;;;;;;;29.69;30.71;97164.59;5060809;28;20040;-29
2022/05/21 02:23:33;;;;;;;1.70;0.88;;;;;;;29.70;30.63;97161.00;5062773;28;20089;-32
2022/05/21 02:26:00;;;;;;;3.00;1.05;;;;;;;29.72;30.45;97163.56;5063015;28;20363;-33
2022/05/21 02:28:25;;;;;;;1.85;1.00;;;;;;;29.73;30.30;97155.53;5060747;28;20028;-30
2022/05/21 02:30:51;;;;;;;2.63;1.00;;;;;;;29.72;30.44;97164.38;5063186;28;20047;-31
2022/05/21 02:33:16;;;;;;;1.27;0.70;;;;;;;29.73;30.14;97160.81;5062948;28;20685;-30
2022/05/21 02:35:42;;;;;;;1.20;0.85;;;;;;;29.72;30.53;97164.38;5063776;28;20035;-30
2022/05/21 02:40:51;;;;;;;1.08;0.85;;;;;;;29.71;29.95;97169.78;5062130;28;20047;-31
2022/05/21 02:43:17;;;;;;;2.63;1.00;;;;;;;29.68;29.85;97157.59;5063299;28;20021;-31
2022/05/21 02:45:42;;;;;;;1.88;0.88;;;;;;;29.68;30.36;97157.59;5063768;28;20029;-30
2022/05/21 02:48:08;;;;;;;4.03;1.02;;;;;;;29.65;30.20;97157.81;5061205;28;20036;-29
2022/05/21 02:50:34;;;;;;;3.20;0.90;;;;;;;29.64;29.94;97171.97;5064455;28;20105;-30
2022/05/21 02:53:07;;;;;;;3.80;1.30;;;;;;;29.64;29.82;97174.63;5065055;28;20384;-35
2022/05/21 02:55:32;;;;;;;2.72;0.85;;;;;;;29.64;29.73;97173.75;5058574;28;20036;-29
2022/05/21 02:57:58;;;;;;;2.20;0.90;;;;;;;29.62;29.71;97176.50;5062210;28;20066;-29
2022/05/21 03:00:25;;;;;;;2.75;1.08;;;;;;;29.61;29.80;97177.44;5067451;28;20035;-31
2022/05/21 03:02:51;;;;;;;4.88;1.02;;;;;;;29.60;29.67;97176.59;5064949;28;20063;-30
2022/05/21 03:05:16;;;;;;;1.92;0.90;;;;;;;29.59;29.57;97180.19;5060107;28;20041;-29
2022/05/21 03:07:44;;;;;;;3.08;0.90;;;;;;;29.58;29.39;97178.47;5058817;28;20024;-31
2022/05/21 03:10:22;;;;;;;4.07;1.08;;;;;;;29.56;29.56;97185.63;5059505;28;20042;-31
2022/05/21 03:12:59;;;;;;;3.97;1.10;;;;;;;29.55;29.60;97188.38;5066600;28;20497;-31
2022/05/21 03:15:29;;;;;;;3.55;1.15;;;;;;;29.54;29.38;97189.31;5062923;28;20056;-29
2022/05/21 03:17:54;;;;;;;3.53;1.05;;;;;;;29.52;29.54;97188.59;5060580;28;20024;-32
2022/05/21 03:20:20;;;;;;;3.28;0.88;;;;;;;29.51;29.72;97187.72;5065808;28;20517;-29
2022/05/21 03:22:46;;;;;;;2.90;1.10;;;;;;;29.48;29.25;97196.66;5062585;28;20382;-30
2022/05/21 03:25:11;;;;;;;1.95;1.00;;;;;;;29.46;29.65;97190.63;5065326;28;20441;-29
2022/05/21 03:27:37;;;;;;;2.72;1.00;;;;;;;29.45;29.74;97199.47;5063589;28;20135;-30
2022/05/21 03:30:10;;;;;;;1.50;0.77;;;;;;;29.43;29.26;97196.09;5065259;28;20570;-32
2022/05/21 03:32:36;;;;;;;1.95;1.00;;;;;;;29.42;29.49;97201.47;5063736;28;20029;-34
2022/05/21 03:35:01;;;;;;;1.60;1.08;;;;;;;29.41;29.41;97202.41;5054553;28;20036;-35
2022/05/21 03:37:27;;;;;;;2.45;0.90;;;;;;;29.39;29.25;97197.22;5060132;28;20058;-32
2022/05/21 03:39:52;;;;;;;4.57;1.10;;;;;;;29.39;29.33;97199.88;5058733;28;20614;-34
2022/05/21 03:42:19;;;;;;;1.98;0.90;;;;;;;29.37;29.22;97201.75;5055736;28;20110;-30
2022/05/21 03:44:45;;;;;;;0.98;0.90;;;;;;;29.34;28.94;97201.94;5062050;28;20028;-30
2022/05/21 03:47:11;;;;;;;1.77;0.95;;;;;;;29.32;28.74;97198.53;5059465;28;20090;-28
2022/05/21 03:49:37;;;;;;;1.70;1.10;;;;;;;29.29;28.67;97209.31;5065487;28;20588;-33
2022/05/21 03:52:02;;;;;;;1.05;0.80;;;;;;;29.27;28.87;97212.03;5063606;28;20029;-30
2022/05/21 03:54:28;;;;;;;4.13;1.08;;;;;;;29.25;28.56;97213.06;5062358;28;20028;-30
2022/05/21 03:56:55;;;;;;;4.15;1.20;;;;;;;29.23;28.48;97204.38;5060791;28;20530;-30
2022/05/21 03:59:20;;;;;;;1.20;0.80;;;;;;;29.18;28.55;97202.88;5060999;28;21889;-31
2022/05/21 04:01:45;;;;;;;4.80;1.10;;;;;;;29.16;28.62;97211.81;5061683;28;20043;-35
2022/05/21 04:04:11;;;;;;;3.08;1.08;;;;;;;29.12;28.61;97212.94;5060346;28;20386;-31
2022/05/21 04:06:36;;;;;;;2.40;1.13;;;;;;;29.09;28.59;97208.72;5062822;28;20849;-31
2022/05/21 04:09:03;;;;;;;2.47;0.80;;;;;;;29.07;28.32;97210.59;5064894;28;20071;-30
2022/05/21 04:11:28;;;;;;;5.22;1.00;;;;;;;29.03;28.39;97217.00;5062797;28;20051;-31
2022/05/21 04:13:54;;;;;;;4.85;1.08;;;;;;;29.00;28.45;97212.78;5059988;28;20143;-31
2022/05/21 04:16:20;;;;;;;1.73;1.00;;;;;;;28.98;28.09;97213.81;5064256;28;20077;-33
2022/05/21 04:18:45;;;;;;;1.55;1.00;;;;;;;28.96;28.25;97221.81;5061352;28;20107;-30
2022/05/21 04:21:11;;;;;;;1.58;1.00;;;;;;;28.94;28.43;97218.38;5056564;28;20774;-34
2022/05/21 04:23:36;;;;;;;2.83;0.93;;;;;;;28.93;27.98;97225.47;5059158;28;20638;-30
2022/05/21 04:26:01;;;;;;;1.92;0.90;;;;;;;28.89;27.98;97223.97;5064045;28;20028;-33
2022/05/21 04:28:27;;;;;;;10.50;1.13;;;;;;;28.89;28.31;97218.69;5063980;28;20027;-28
2022/05/21 04:30:52;;;;;;;1.65;0.85;;;;;;;28.86;28.16;97221.47;5066399;28;20028;-30
2022/05/21 04:33:18;;;;;;;2.80;1.15;;;;;;;28.85;28.17;97216.28;5059950;28;20020;-31
2022/05/21 04:38:27;;;;;;;2.47;1.30;;;;;;;28.81;27.87;97208.56;5066451;28;20038;-30
2022/05/21 04:40:53;;;;;;;2.67;1.10;;;;;;;28.81;27.83;97216.47;5064498;28;20032;-36
2022/05/21 04:43:18;;;;;;;3.80;0.80;;;;;;;28.78;28.08;97216.66;5062828;28;20441;-30
2022/05/21 04:45:43;;;;;;;3.03;1.27;;;;;;;28.78;27.76;97226.34;5059970;28;20090;-31
2022/05/21 04:48:09;;;;;;;1.95;1.27;;;;;;;28.76;27.98;97225.59;5067374;28;20033;-34
2022/05/21 04:50:35;;;;;;;1.10;0.77;;;;;;;28.74;27.93;97224.81;5062384;28;20057;-30
2022/05/21 04:53:00;;;;;;;4.35;1.13;;;;;;;28.73;27.89;97233.69;5067834;28;20457;-30
2022/05/21 04:55:26;;;;;;;2.83;1.08;;;;;;;28.71;27.77;97235.56;5060642;28;20025;-28
2022/05/21 04:57:51;;;;;;;2.15;0.80;;;;;;;28.70;27.73;97234.69;5063306;28;20028;-30
2022/05/21 05:00:17;;;;;;;1.58;0.93;;;;;;;28.68;27.85;97229.50;5063609;28;20028;-29
2022/05/21 05:02:42;;;;;;;3.35;1.00;;;;;;;28.67;27.83;97235.72;5065113;28;20063;-30
2022/05/21 05:05:08;;;;;;;2.10;0.98;;;;;;;28.67;27.81;97245.41;5065682;28;20659;-29
2022/05/21 05:07:34;;;;;;;1.30;1.00;;;;;;;28.67;27.92;97243.66;5061441;28;20033;-32
2022/05/21 05:09:59;;;;;;;1.92;0.98;;;;;;;28.67;27.85;97240.16;5065203;28;20040;-31
2022/05/21 05:12:25;;;;;;;2.65;1.27;;;;;;;28.67;27.82;97251.56;5061149;28;20031;-31
2022/05/21 05:14:50;;;;;;;2.80;1.08;;;;;;;28.68;27.81;97258.53;5064146;28;20024;-30
2022/05/21 05:17:15;;;;;;;2.05;1.10;;;;;;;28.69;27.80;97249.66;5062102;28;20494;-28
2022/05/21 05:19:41;;;;;;;1.38;0.90;;;;;;;28.71;27.90;97257.50;5064421;28;20753;-28
2022/05/21 05:22:09;;;;;;;2.65;1.15;;;;;;;28.72;28.15;97248.63;5058672;28;20028;-30
2022/05/21 05:24:37;;;;;;;1.60;1.00;;;;;;;28.74;27.84;97251.19;5062128;28;20051;-32
2022/05/21 05:27:03;;;;;;;2.35;1.00;;;;;;;28.75;27.83;97252.91;5058648;28;20081;-29
2022/05/21 05:29:29;;;;;;;3.55;1.20;;;;;;;28.75;28.07;97253.75;5061276;28;20973;-29
2022/05/21 05:31:54;;;;;;;2.75;1.08;;;;;;;28.76;27.98;97244.88;5060304;28;20028;-28
2022/05/21 05:34:20;;;;;;;4.32;1.10;;;;;;;28.76;28.17;97250.16;5059622;28;20024;-30
2022/05/21 05:36:47;;;;;;;2.30;0.88;;;;;;;28.76;27.90;97238.78;5061808;28;20054;-31
2022/05/21 05:39:13;;;;;;;7.15;1.10;;;;;;;28.78;28.01;97242.16;5063739;28;20092;-34
2022/05/21 05:41:39;;;;;;;1.83;1.00;;;;;;;28.78;28.09;97253.56;5064506;28;20034;-31
2022/05/21 05:44:04;;;;;;;3.85;1.05;;;;;;;28.79;28.03;97250.00;5062765;28;20039;-31
2022/05/21 05:46:30;;;;;;;1.50;0.80;;;;;;;28.79;27.85;97250.00;5060074;28;20024;-32
2022/05/21 05:48:55;;;;;;;2.22;1.10;;;;;;;28.80;28.00;97249.03;5058135;28;20031;-28
2022/05/21 05:51:21;;;;;;;1.65;1.17;;;;;;;28.79;28.08;97250.00;5063382;28;20027;-30
2022/05/21 05:53:46;;;;;;;2.17;1.30;;;;;;;28.77;28.00;97243.09;5063456;28;20148;-28
2022/05/21 05:56:12;;;;;;;1.50;1.00;;;;;;;28.80;27.84;97250.84;5036044;28;20612;-30
2022/05/21 06:01:23;;;;;;;2.20;0.95;;;;;;;28.79;27.69;97243.84;5061307;28;20047;-31
2022/05/21 06:03:48;;;;;;;2.17;1.15;;;;;;;28.78;27.92;97252.72;5062328;28;20067;-28
2022/05/21 06:06:14;;;;;;;4.50;1.13;;;;;;;28.78;27.90;97255.34;5061873;28;20028;-28
2022/05/21 06:08:39;;;;;;;3.20;0.85;;;;;;;28.77;27.66;97257.16;5061989;28;20086;-30
2022/05/21 06:11:05;;;;;;;1.25;0.80;;;;;;;28.77;27.69;97258.94;5062633;28;20050;-30
2022/05/21 06:13:30;;;;;;;2.42;1.02;;;;;;;28.76;27.47;97254.59;5064275;28;20060;-32
2022/05/21 06:15:56;;;;;;;3.90;1.20;;;;;;;28.76;27.80;97249.31;5060958;28;20039;-30
2022/05/21 06:18:22;;;;;;;2.10;1.00;;;;;;;28.75;27.67;97258.19;5061497;28;20482;-29
2022/05/21 06:20:48;;;;;;;4.43;1.20;;;;;;;28.74;27.61;97262.59;5062404;28;20527;-30
2022/05/21 06:23:14;;;;;;;2.20;1.02;;;;;;;28.73;27.59;97266.19;5063031;28;20024;-31
2022/05/21 06:25:40;;;;;;;3.47;0.98;;;;;;;28.72;27.71;97266.25;5058539;28;20077;-32
2022/05/21 06:28:06;;;;;;;2.22;0.90;;;;;;;28.74;27.97;97267.00;5060237;28;20093;-30
2022/05/21 06:30:32;;;;;;;5.88;1.02;;;;;;;28.72;27.67;97264.47;5061505;28;20024;-29
2022/05/21 06:32:59;;;;;;;1.40;0.85;;;;;;;28.73;27.69;97273.22;5063217;28;20032;-30
2022/05/21 06:35:26;;;;;;;11.63;1.10;;;;;;;28.72;27.73;97269.72;5058920;28;20473;-29
2022/05/21 06:37:52;;;;;;;2.38;0.80;;;;;;;28.74;27.76;97272.28;5063695;28;20036;-29
2022/05/21 06:40:17;;;;;;;2.53;0.95;;;;;;;28.75;27.77;97274.84;5059152;28;20023;-30
2022/05/21 06:42:43;;;;;;;4.10;1.20;;;;;;;28.75;27.18;97272.19;5064164;28;20032;-27
2022/05/21 06:45:09;;;;;;;1.92;1.20;;;;;;;28.67;26.99;97272.66;5062015;28;20162;-31
2022/05/21 06:47:34;;;;;;;4.13;1.15;;;;;;;28.58;27.02;97267.91;5057662;28;20473;-30
2022/05/21 06:50:00;;;;;;;1.85;1.00;;;;;;;28.49;26.85;97269.28;5062398;28;20039;-34
2022/05/21 06:52:26;;;;;;;4.95;1.10;;;;;;;28.38;26.34;97277.78;5057337;28;20441;-31
2022/05/21 06:54:51;;;;;;;2.97;1.33;;;;;;;28.23;26.04;97268.09;5059212;28;20834;-31
2022/05/21 06:57:17;;;;;;;1.77;0.90;;;;;;;28.12;26.12;97279.22;5061204;28;20035;-31
2022/05/21 06:59:43;;;;;;;2.25;0.95;;;;;;;27.99;25.87;97282.53;5067193;28;20040;-29
2022/05/21 07:02:09;;;;;;;2.72;0.98;;;;;;;27.85;25.88;97274.53;5064887;28;20032;-30
2022/05/21 07:07:33;;;;;;;4.95;1.27;;;;;;;27.59;26.20;97282.00;5056119;28;20055;-32
2022/05/21 07:09:59;;;;;;;2.00;0.88;;;;;;;27.49;26.30;97276.38;5065084;28;20036;-32
2022/05/21 07:12:25;;;;;;;2.20;0.80;;;;;;;27.41;26.39;97276.78;5061898;28;20102;-30
2022/05/21 07:14:50;;;;;;;1.65;1.10;;;;;;;27.33;26.17;97274.53;5061140;28;20070;-29
2022/05/21 07:17:16;;;;;;;3.75;1.13;;;;;;;27.27;26.40;97274.88;5060270;28;20028;-29
2022/05/21 07:19:41;;;;;;;3.80;0.90;;;;;;;27.21;26.02;97272.53;5061292;28;20040;-29
2022/05/21 07:22:08;;;;;;;2.33;0.90;;;;;;;27.14;26.18;97269.38;5063407;28;20652;-30
2022/05/21 07:24:37;;;;;;;1.58;0.80;;;;;;;27.08;26.39;97267.91;5063901;28;20937;-31
2022/05/21 07:27:03;;;;;;;4.65;0.80;;;;;;;27.03;26.30;97267.28;5059375;28;20025;-31
2022/05/21 07:29:28;;;;;;;2.38;0.70;;;;;;;26.99;26.23;97260.47;5065277;28;20032;-29
2022/05/21 07:31:53;;;;;;;1.75;0.65;;;;;;;26.95;26.30;97258.94;5061090;28;20055;-29
2022/05/21 07:34:19;;;;;;;2.13;0.88;;;;;;;26.90;26.31;97255.66;5064687;28;20395;-29
2022/05/21 07:36:44;;;;;;;1.90;0.90;;;;;;;26.85;26.36;97251.47;5061304;28;20031;-29
2022/05/21 07:39:10;;;;;;;1.30;0.73;;;;;;;26.82;26.45;97245.53;5059675;28;20085;-31
2022/05/21 07:41:36;;;;;;;1.00;0.47;;;;;;;26.77;26.29;97251.00;5062268;28;20035;-31
2022/05/21 07:44:01;;;;;;;0.63;0.55;;;;;;;26.72;26.16;97248.63;5059472;28;20021;-32
2022/05/21 07:46:27;;;;;;;2.13;0.70;;;;;;;26.67;26.30;97250.63;5063630;28;20536;-41
2022/05/21 07:48:52;;;;;;;1.95;0.70;;;;;;;26.64;26.27;97257.81;5064273;28;20082;-29
2022/05/21 07:51:17;;;;;;;1.15;0.50;;;;;;;26.60;26.30;97259.75;5064156;28;20078;-31
2022/05/21 07:53:43;;;;;;;4.95;0.70;;;;;;;26.58;26.05;97264.25;5061062;28;20626;-30
2022/05/21 07:56:11;;;;;;;2.05;0.57;;;;;;;26.53;26.30;97264.44;5059728;28;20040;-30
2022/05/21 07:58:37;;;;;;;2.47;0.65;;;;;;;26.51;26.30;97275.97;5056566;28;20030;-30
2022/05/21 08:01:02;;;;;;;2.28;0.80;;;;;;;26.44;26.32;97264.91;5065906;28;20051;-36
2022/05/21 08:03:29;;;;;;;2.83;0.60;;;;;;;26.44;26.26;97264.91;5062591;28;20028;-29
2022/05/21 08:05:55;;;;;;;2.42;0.60;;;;;;;26.41;25.30;97259.78;5063114;28;20491;-29
2022/05/21 08:08:21;;;;;;;3.17;0.60;;;;;;;26.38;26.25;97254.69;5064500;28;20035;-29
2022/05/21 08:10:46;;;;;;;0.65;0.35;;;;;;;26.37;26.13;97259.09;5065559;28;22329;-29
2022/05/21 08:13:12;;;;;;;1.70;0.60;;;;;;;26.35;26.22;97261.78;5069675;28;20035;-32
2022/05/21 08:15:38;;;;;;;1.80;0.43;;;;;;;26.33;26.41;97261.03;5069267;28;20035;-28
2022/05/21 08:18:07;;;;;;;1.52;0.70;;;;;;;26.33;26.41;97253.13;5064785;28;20055;-33
2022/05/21 08:20:33;;;;;;;1.90;0.60;;;;;;;26.33;26.19;97262.78;5061640;28;20041;-30
2022/05/21 08:28:27;;;;;;;0.73;0.43;;;;;;;26.27;26.16;97253.41;5066772;28;20038;-30
2022/05/21 08:30:52;;;;;;;1.27;0.45;;;;;;;26.26;26.26;97251.72;5066084;28;20036;-28
2022/05/21 08:33:18;;;;;;;5.18;0.70;;;;;;;26.27;25.83;97252.59;5064190;28;20078;-31
2022/05/21 08:35:44;;;;;;;0.85;0.60;;;;;;;26.26;26.36;97243.84;5066973;28;20070;-31
2022/05/21 08:38:10;;;;;;;5.28;0.70;;;;;;;26.26;26.27;97251.72;5064695;28;20091;-35
2022/05/21 08:40:40;;;;;;;1.75;0.55;;;;;;;26.25;26.13;97250.00;5068281;28;20051;-31
2022/05/21 08:43:07;;;;;;;1.13;0.50;;;;;;;26.25;26.28;97244.75;5063516;28;20044;-33
2022/05/21 08:45:57;;;;;;;1.75;0.65;;;;;;;26.26;26.21;97246.47;5044789;28;20057;-33
2022/05/21 08:48:22;;;;;;;4.22;1.10;;;;;;;26.28;26.03;97244.59;5041148;28;20024;-30
2022/05/21 08:50:48;;;;;;;6.57;0.50;;;;;;;26.31;26.38;97239.22;5049476;28;20028;-32
2022/05/21 08:53:16;;;;;;;4.97;0.82;;;;;;;26.33;26.48;97242.63;5053338;28;20024;-30
2022/05/21 08:55:46;;;;;;;5.88;0.57;;;;;;;26.40;26.45;97231.81;5058262;28;20028;-30
2022/05/21 08:58:29;;;;;;;5.28;0.68;;;;;;;26.47;26.53;97244.56;5060380;28;21215;-29
2022/05/21 09:00:55;;;;;;;1.50;0.50;;;;;;;26.53;26.56;97238.16;5050120;28;20079;-30
2022/05/21 09:03:21;;;;;;;1.30;0.70;;;;;;;26.59;26.60;97234.38;5064583;28;20410;-30
2022/05/21 09:05:50;;;;;;;16.48;0.85;;;;;;;26.67;26.62;97228.75;5062429;28;20031;-31
2022/05/21 09:08:19;;;;;;;3.60;0.57;;;;;;;26.73;26.70;97220.53;5041282;28;20567;-32
2022/05/21 09:10:56;;;;;;;3.47;0.65;;;;;;;26.79;26.70;97222.88;5059327;28;20054;-29
2022/05/21 09:13:27;;;;;;;2.38;0.40;;;;;;;26.85;26.54;97221.72;5040024;28;20187;-31
2022/05/21 09:18:37;;;;;;;1.67;0.70;;;;;;;26.94;26.67;97215.13;5058811;28;20453;-30
2022/05/21 09:21:08;;;;;;;4.18;0.75;;;;;;;27.02;26.77;97217.38;5058072;28;20025;-33
2022/05/21 09:23:49;;;;;;;2.78;0.70;;;;;;;27.07;26.78;97210.97;5042392;28;20037;-36
2022/05/21 09:26:15;;;;;;;5.72;1.40;;;;;;;27.11;26.84;97212.50;5054902;28;20059;-36
2022/05/21 09:28:41;;;;;;;4.22;1.30;;;;;;;27.16;26.90;97206.16;5054277;28;20020;-28
2022/05/21 09:31:07;;;;;;;5.07;1.88;;;;;;;27.19;26.92;97206.00;5054557;28;20023;-28
2022/05/21 09:33:41;;;;;;;6.07;1.83;;;;;;;27.24;26.82;97209.25;5055362;28;20699;-30
2022/05/21 09:36:06;;;;;;;7.82;2.13;;;;;;;27.28;26.91;97197.63;5056090;28;21061;-28
2022/05/21 09:38:54;;;;;;;10.23;2.28;;;;;;;27.32;26.98;97196.53;5060399;28;20111;-28
2022/05/21 09:41:22;;;;;;;7.72;2.08;;;;;;;27.36;27.12;97192.81;5054435;28;20051;-30
2022/05/21 09:46:40;;;;;;;31.93;5.87;;;;;;;27.43;27.10;97195.97;5066717;28;20043;-29
2022/05/21 09:49:26;;;;;;;22.77;5.72;;;;;;;27.46;27.12;97194.94;5067180;28;20053;-29
2022/05/21 09:52:02;;;;;;;23.70;5.55;;;;;;;27.50;27.23;97185.97;5067780;28;20185;-29
2022/05/21 09:54:28;;;;;;;27.55;5.82;;;;;;;27.52;27.19;97184.94;5068958;28;20024;-29
2022/05/21 09:56:54;;;;;;;24.55;5.63;;;;;;;27.56;27.17;97185.63;5067480;28;20055;-30
2022/05/21 09:59:22;;;;;;;21.52;4.55;;;;;;;27.56;27.19;97185.63;5061231;28;20027;-29
2022/05/21 10:01:49;;;;;;;15.02;5.20;;;;;;;27.60;27.23;97186.28;5067772;28;20031;-37
2022/05/21 10:04:15;;;;;;;24.27;4.97;;;;;;;27.62;27.28;97185.31;5069039;28;20024;-29
2022/05/21 10:06:43;;;;;;;16.77;4.38;;;;;;;27.64;27.35;97188.72;5066112;28;20811;-29
2022/05/21 10:12:08;;;;;;;17.98;4.18;;;;;;;27.71;27.36;97188.38;5064217;28;20147;-29
2022/05/21 10:14:58;;;;;;;16.90;3.60;;;;;;;27.73;27.35;97175.97;5062208;28;20062;-30
2022/05/21 10:17:37;;;;;;;19.17;4.05;;;;;;;27.75;27.31;97174.09;5058205;28;20537;-31
2022/05/21 10:20:20;;;;;;;12.00;3.53;;;;;;;27.78;27.50;97176.56;5058349;28;20036;-29
2022/05/21 10:23:04;;;;;;;12.63;3.45;;;;;;;27.79;27.51;97175.63;5057321;28;20096;-29
2022/05/21 10:26:01;;;;;;;8.05;3.50;;;;;;;27.81;27.43;97173.78;5058287;28;20023;-31
2022/05/21 10:28:41;;;;;;;10.98;3.08;;;;;;;27.81;27.49;97165.88;5058661;28;20105;-33
2022/05/21 10:31:13;;;;;;;9.40;3.55;;;;;;;27.85;27.59;97170.03;5060201;28;20039;-33
2022/05/21 10:34:17;;;;;;;13.23;3.42;;;;;;;27.87;27.58;97162.88;5066318;28;20027;-30
2022/05/21 10:36:51;;;;;;;9.63;3.13;;;;;;;27.89;27.66;97160.19;5053468;28;20122;-30
2022/05/21 10:39:29;;;;;;;8.43;2.90;;;;;;;27.90;27.69;97152.19;5059707;28;20032;-29
2022/05/21 10:42:06;;;;;;;5.45;2.50;;;;;;;27.91;27.44;97148.63;5058463;28;20024;-29
2022/05/21 10:44:43;;;;;;;9.05;2.97;;;;;;;27.94;27.55;97158.13;5059123;28;20028;-30
2022/05/21 10:47:14;;;;;;;7.35;2.50;;;;;;;27.96;27.65;97152.78;5061358;28;20028;-29
2022/05/21 10:50:09;;;;;;;6.97;2.40;;;;;;;27.96;27.60;97145.69;5056992;28;20036;-33
2022/05/21 10:53:11;;;;;;;6.32;2.63;;;;;;;28.00;27.47;97146.41;5060753;28;20131;-31
2022/05/21 10:55:37;;;;;;;7.97;2.38;;;;;;;28.02;27.65;97139.25;5055992;28;20028;-35
2022/05/21 10:58:14;;;;;;;7.43;2.15;;;;;;;28.00;27.69;97139.31;5052764;28;20395;-31
2022/05/21 11:01:01;;;;;;;7.05;2.55;;;;;;;28.04;27.89;97138.22;5056393;28;20131;-32
2022/05/21 11:03:36;;;;;;;5.60;2.10;;;;;;;28.05;27.80;97131.19;5055162;28;20024;-30
2022/05/21 11:06:38;;;;;;;6.88;2.17;;;;;;;28.07;27.69;97131.94;5047986;28;20035;-33
2022/05/21 11:09:23;;;;;;;7.55;2.67;;;;;;;28.08;27.79;97131.00;5051222;28;20034;-29
2022/05/21 11:11:55;;;;;;;17.80;2.08;;;;;;;28.10;27.83;97133.56;5053845;28;20050;-32
2022/05/21 11:14:38;;;;;;;7.75;2.00;;;;;;;28.12;27.92;97135.16;5044890;28;20067;-30
2022/05/21 11:17:28;;;;;;;11.07;2.28;;;;;;;28.14;27.99;97128.00;5051251;28;20057;-33
2022/05/21 11:20:11;;;;;;;6.80;2.05;;;;;;;28.15;27.89;97132.34;5055888;28;20645;-31
2022/05/21 11:22:42;;;;;;;5.20;2.28;;;;;;;28.17;27.80;97130.47;5056165;28;20042;-30
2022/05/21 11:25:36;;;;;;;5.73;2.00;;;;;;;28.20;27.97;97123.31;5059295;28;20029;-30
2022/05/21 11:28:30;;;;;;;4.55;1.80;;;;;;;28.21;27.96;97122.38;5057761;28;20040;-35
2022/05/21 11:30:56;;;;;;;7.78;2.30;;;;;;;28.22;27.85;97119.66;5056173;28;20032;-32
2022/05/21 11:38:52;;;;;;;4.22;1.40;;;;;;;28.27;27.93;97122.91;5062020;28;20043;-32
2022/05/21 11:41:28;;;;;;;5.40;1.92;;;;;;;28.28;27.98;97123.75;5057204;28;20036;-33
2022/05/21 11:47:05;;;;;;;2.92;1.52;;;;;;;28.29;28.11;97115.75;5040605;28;20153;-31
2022/05/21 11:49:52;;;;;;;3.85;1.40;;;;;;;28.32;28.15;97119.16;5043258;28;20032;-32
2022/05/21 11:52:26;;;;;;;6.53;1.25;;;;;;;28.34;27.89;97118.13;5042076;28;20040;-31
2022/05/21 11:55:07;;;;;;;4.68;1.58;;;;;;;28.34;28.03;97117.28;5044393;28;20060;-32
2022/05/21 11:57:34;;;;;;;3.33;1.35;;;;;;;28.36;28.02;97115.41;5044626;28;20028;-32
2022/05/21 12:00:16;;;;;;;4.13;1.40;;;;;;;28.36;28.02;97121.53;5051480;28;20040;-29
2022/05/21 12:02:53;;;;;;;3.05;1.52;;;;;;;28.38;28.17;97118.81;5061260;28;20087;-30
2022/05/21 12:05:40;;;;;;;2.80;1.38;;;;;;;28.38;27.98;97117.00;5060974;28;20044;-29
2022/05/21 12:08:12;;;;;;;4.63;1.42;;;;;;;28.38;27.98;97114.38;5062286;28;20024;-32
2022/05/21 12:11:02;;;;;;;3.53;1.40;;;;;;;28.39;28.32;97116.09;5061782;28;20516;-32
2022/05/21 12:13:33;;;;;;;2.85;1.23;;;;;;;28.40;28.24;97112.50;5061561;28;20085;-33